Time;durP1;ratioP1;P1;durP2;ratioP2;P2;SDS_P1;SDS_P2;PMS_P1;PMS_P2;Temp;Humidity;BMP_temperature;BMP_pressure;BME280_temperature;BME280_humidity;BME280_pressure;Samples;Min_cycle;Max_cycle;Signal;HPM_P1;HPM_P2
2022/08/21 00:00:34;;;;;;;3.57;3.00;;;;;;;21.04;58.29;98856.44;6977219;28;20206;-80
2022/08/21 00:03:56;;;;;;;3.90;3.00;;;;;;;21.12;57.67;98866.06;6979014;28;20231;-79
2022/08/21 00:07:19;;;;;;;4.13;2.93;;;;;;;20.75;58.38;98852.50;6976801;28;20244;-80
2022/08/21 00:10:41;;;;;;;4.40;3.50;;;;;;;20.68;59.47;98854.66;6998478;28;20736;-81
2022/08/21 00:14:04;;;;;;;8.63;3.40;;;;;;;20.62;58.84;98839.31;7021253;28;20228;-81
2022/08/21 00:17:25;;;;;;;5.20;3.07;;;;;;;20.76;58.44;98845.91;7033020;28;20314;-82
2022/08/21 00:20:47;;;;;;;3.73;2.80;;;;;;;20.64;58.54;98845.31;7037696;28;20249;-81
2022/08/21 00:24:10;;;;;;;6.07;3.30;;;;;;;20.41;58.94;98842.22;7037523;28;20259;-81
2022/08/21 00:27:32;;;;;;;4.47;3.00;;;;;;;20.77;58.31;98853.88;7037153;28;20254;-81
2022/08/21 00:30:57;;;;;;;5.30;3.23;;;;;;;20.31;58.42;98839.44;7039330;28;20193;-80
2022/08/21 00:34:18;;;;;;;4.37;3.27;;;;;;;20.53;58.83;98834.63;7042101;28;20635;-80
2022/08/21 00:37:41;;;;;;;3.13;2.83;;;;;;;20.70;57.64;98827.81;7015458;28;20225;-81
2022/08/21 00:41:06;;;;;;;5.00;3.17;;;;;;;20.48;58.75;98842.81;7015862;28;20225;-81
2022/08/21 00:44:27;;;;;;;6.00;3.10;;;;;;;20.55;58.23;98835.16;7007860;28;20229;-81
2022/08/21 00:47:49;;;;;;;3.63;3.20;;;;;;;20.38;58.60;98843.59;7017639;28;20566;-81
2022/08/21 00:51:26;;;;;;;6.40;3.10;;;;;;;20.27;59.01;98841.09;7034142;28;20565;-81
2022/08/21 00:54:49;;;;;;;5.13;2.80;;;;;;;20.29;58.43;98826.00;7033976;28;20232;-82
2022/08/21 00:58:14;;;;;;;6.23;3.20;;;;;;;20.30;58.56;98846.84;7014799;28;20285;-83
2022/08/21 01:01:35;;;;;;;4.83;2.90;;;;;;;20.49;57.99;98842.53;7007057;28;20229;-81
2022/08/21 01:04:57;;;;;;;5.80;3.20;;;;;;;20.26;58.77;98840.25;7005985;28;20237;-82
2022/08/21 01:08:20;;;;;;;3.47;3.17;;;;;;;20.21;58.42;98847.59;7005272;28;20220;-82
2022/08/21 01:11:42;;;;;;;5.27;3.13;;;;;;;20.48;58.13;98838.16;7006500;28;20670;-81
2022/08/21 01:15:07;;;;;;;3.37;2.77;;;;;;;20.16;58.16;98851.13;7005938;28;20217;-81
2022/08/21 01:18:29;;;;;;;3.63;3.00;;;;;;;20.30;58.37;98846.00;7005576;28;20671;-82
2022/08/21 01:21:53;;;;;;;3.50;3.20;;;;;;;20.10;58.85;98843.19;7006029;28;20224;-81
2022/08/21 01:25:19;;;;;;;5.50;2.97;;;;;;;19.99;59.05;98841.44;7015124;28;20222;-81
2022/08/21 01:28:43;;;;;;;4.87;3.63;;;;;;;20.39;57.86;98841.69;7028543;28;20208;-80
2022/08/21 01:32:07;;;;;;;3.27;2.97;;;;;;;20.07;57.99;98799.88;7041794;28;20208;-80
2022/08/21 01:35:29;;;;;;;4.07;2.97;;;;;;;19.68;59.13;98829.44;7040601;28;20229;-82
2022/08/21 01:38:52;;;;;;;3.47;3.17;;;;;;;19.61;59.78;98837.06;7043286;28;20266;-81
2022/08/21 01:42:14;;;;;;;3.53;2.90;;;;;;;19.96;59.25;98836.47;7020115;28;20275;-82
2022/08/21 01:45:35;;;;;;;5.50;3.30;;;;;;;19.84;58.81;98835.84;7007485;28;20245;-79
2022/08/21 01:48:57;;;;;;;7.93;3.63;;;;;;;19.89;58.52;98833.97;7004093;28;20679;-80
2022/08/21 01:52:19;;;;;;;4.10;3.00;;;;;;;19.84;58.61;98825.75;7006119;28;20212;-80
2022/08/21 01:55:42;;;;;;;4.47;3.30;;;;;;;19.94;58.08;98838.66;7004731;28;20608;-79
2022/08/21 01:59:03;;;;;;;4.43;3.27;;;;;;;19.67;58.04;98805.09;7004136;28;20254;-79
2022/08/21 02:02:25;;;;;;;4.43;3.17;;;;;;;19.41;58.51;98830.59;7005846;28;20232;-79
2022/08/21 02:05:46;;;;;;;4.87;3.60;;;;;;;18.54;61.41;98829.13;7005069;28;20313;-79
2022/08/21 02:09:10;;;;;;;4.27;3.70;;;;;;;19.04;60.84;98818.75;7019847;28;20245;-79
2022/08/21 02:12:33;;;;;;;4.40;3.20;;;;;;;19.30;60.62;98826.97;7017392;28;20675;-80
2022/08/21 02:15:54;;;;;;;5.00;3.43;;;;;;;19.05;60.25;98804.00;7004576;28;20292;-80
2022/08/21 02:19:17;;;;;;;7.27;3.33;;;;;;;19.24;59.53;98792.47;7004858;28;20212;-80
2022/08/21 02:22:38;;;;;;;5.80;3.20;;;;;;;19.48;59.27;98825.72;7005213;28;20276;-80
2022/08/21 02:26:02;;;;;;;7.40;3.60;;;;;;;18.82;60.03;98766.88;7004054;28;20241;-79
2022/08/21 02:29:25;;;;;;;5.77;3.77;;;;;;;19.43;59.79;98825.69;7002985;28;20757;-79
2022/08/21 02:32:47;;;;;;;6.17;3.30;;;;;;;19.15;59.30;98804.09;7004886;28;20737;-80
2022/08/21 02:36:09;;;;;;;3.97;3.60;;;;;;;19.28;59.66;98817.38;7005242;28;20877;-80
2022/08/21 02:39:31;;;;;;;3.60;3.17;;;;;;;19.41;59.34;98822.41;7004175;28;20213;-79
2022/08/21 02:42:53;;;;;;;5.43;3.20;;;;;;;19.34;59.09;98821.81;7004794;28;20715;-80
2022/08/21 02:46:18;;;;;;;4.67;3.43;;;;;;;19.14;59.22;98816.94;7004830;28;20208;-79
2022/08/21 02:49:39;;;;;;;4.17;3.73;;;;;;;18.97;59.36;98818.97;7003447;28;20619;-79
2022/08/21 02:53:01;;;;;;;4.30;3.37;;;;;;;19.09;59.64;98822.34;7005822;28;20260;-79
2022/08/21 02:56:23;;;;;;;5.43;3.90;;;;;;;18.88;60.36;98823.22;7031758;28;20238;-79
2022/08/21 02:59:44;;;;;;;4.20;3.63;;;;;;;18.49;60.33;98815.41;7031898;28;20244;-79
2022/08/21 03:03:07;;;;;;;5.50;3.77;;;;;;;18.75;60.57;98828.28;7032224;28;20254;-79
2022/08/21 03:06:29;;;;;;;5.43;3.80;;;;;;;18.80;60.68;98801.84;7033060;28;20211;-80
2022/08/21 03:09:51;;;;;;;6.67;3.77;;;;;;;19.15;59.54;98815.84;7031588;28;20211;-79
2022/08/21 03:13:13;;;;;;;4.40;3.23;;;;;;;19.23;59.15;98815.41;7031511;28;20266;-79
2022/08/21 03:16:35;;;;;;;3.37;3.03;;;;;;;19.29;58.86;98806.16;7031781;28;20228;-80
2022/08/21 03:19:59;;;;;;;3.77;3.30;;;;;;;18.75;59.19;98788.13;7030425;28;20212;-79
2022/08/21 03:23:20;;;;;;;8.70;3.90;;;;;;;18.45;60.50;98804.19;7038414;28;20235;-80
2022/08/21 03:26:42;;;;;;;4.60;3.67;;;;;;;18.21;61.52;98807.41;7043647;28;20251;-79
2022/08/21 03:30:04;;;;;;;6.33;3.83;;;;;;;18.54;61.42;98812.75;7044894;28;20172;-80
2022/08/21 03:33:26;;;;;;;5.60;4.03;;;;;;;18.47;61.25;98815.69;7028834;28;20282;-79
2022/08/21 03:36:49;;;;;;;4.13;3.73;;;;;;;18.78;60.51;98825.88;7003539;28;20689;-79
2022/08/21 03:40:13;;;;;;;3.93;3.63;;;;;;;18.89;60.34;98821.34;7002487;28;20217;-79
2022/08/21 03:43:34;;;;;;;5.30;3.53;;;;;;;19.01;59.85;98809.16;7008461;28;20370;-79
2022/08/21 03:46:56;;;;;;;4.67;3.47;;;;;;;19.24;59.06;98813.50;7008466;28;20209;-79
2022/08/21 03:50:18;;;;;;;7.97;3.80;;;;;;;18.91;59.06;98816.41;7009356;28;20715;-79
2022/08/21 03:53:40;;;;;;;6.27;3.33;;;;;;;19.00;59.73;98823.09;7012737;28;20227;-79
2022/08/21 03:57:02;;;;;;;6.20;3.60;;;;;;;18.90;59.71;98833.91;7012256;28;20248;-80
2022/08/21 04:00:24;;;;;;;4.00;3.60;;;;;;;18.81;59.73;98830.81;7012832;28;20240;-79
2022/08/21 04:03:46;;;;;;;4.20;3.90;;;;;;;18.76;59.69;98808.09;7012556;28;20281;-79
2022/08/21 04:07:07;;;;;;;5.90;3.73;;;;;;;18.64;60.06;98824.59;7013199;28;20354;-80
2022/08/21 04:10:32;;;;;;;3.90;3.50;;;;;;;18.80;60.26;98828.34;7014629;28;20654;-80
2022/08/21 04:13:54;;;;;;;4.63;4.17;;;;;;;18.44;61.60;98834.47;7011532;28;20724;-79
2022/08/21 04:17:15;;;;;;;5.40;3.50;;;;;;;18.90;60.56;98834.75;7013614;28;20216;-79
2022/08/21 04:20:37;;;;;;;6.67;3.60;;;;;;;18.80;59.65;98840.09;7013405;28;20657;-79
2022/08/21 04:23:59;;;;;;;4.23;3.83;;;;;;;17.97;62.22;98825.06;7021359;28;20517;-79
2022/08/21 04:27:22;;;;;;;5.17;3.67;;;;;;;18.78;60.36;98839.53;7034688;28;20216;-80
2022/08/21 04:30:44;;;;;;;5.53;3.63;;;;;;;18.96;59.00;98855.56;7036516;28;20230;-80
2022/08/21 04:34:05;;;;;;;6.30;4.17;;;;;;;18.73;59.79;98853.13;7036740;28;20259;-80
2022/08/21 04:37:27;;;;;;;3.93;3.53;;;;;;;18.79;59.75;98854.00;7036772;28;20231;-80
2022/08/21 04:40:50;;;;;;;4.20;3.73;;;;;;;18.78;59.26;98846.88;7037549;28;20208;-80
2022/08/21 04:44:12;;;;;;;5.90;3.93;;;;;;;17.99;60.89;98866.59;7036410;28;20251;-80
2022/08/21 04:47:34;;;;;;;4.47;4.07;;;;;;;17.83;62.09;98864.72;7035127;28;20721;-81
2022/08/21 04:50:59;;;;;;;5.97;3.80;;;;;;;18.40;62.05;98880.56;7035629;28;20210;-80
2022/08/21 04:54:22;;;;;;;5.30;3.77;;;;;;;18.44;61.09;98873.53;7007636;28;20223;-80
2022/08/21 04:57:44;;;;;;;4.07;3.23;;;;;;;18.66;60.58;98874.34;7009282;28;20224;-80
2022/08/21 05:01:11;;;;;;;5.53;3.77;;;;;;;18.73;60.29;98872.25;7008468;28;20215;-80
2022/08/21 05:04:34;;;;;;;5.00;3.47;;;;;;;18.75;60.06;98874.72;7007903;28;20229;-80
2022/08/21 05:07:57;;;;;;;5.50;3.73;;;;;;;18.51;60.56;98885.06;7008119;28;20747;-80
2022/08/21 05:11:19;;;;;;;7.90;4.37;;;;;;;18.68;60.30;98882.28;7010229;28;20573;-81
2022/08/21 05:14:42;;;;;;;4.83;3.83;;;;;;;18.33;61.04;98887.31;7011491;28;20229;-80
2022/08/21 05:18:06;;;;;;;6.23;4.00;;;;;;;18.39;60.80;98878.09;7011709;28;20224;-80
2022/08/21 05:21:27;;;;;;;4.83;3.97;;;;;;;18.55;60.41;98875.31;7029344;28;20672;-80
2022/08/21 05:24:49;;;;;;;4.17;3.77;;;;;;;18.80;59.64;98878.34;7052436;28;20261;-81
2022/08/21 05:28:12;;;;;;;6.73;3.80;;;;;;;18.56;60.58;98871.50;7046882;28;20205;-81
2022/08/21 05:31:33;;;;;;;4.17;3.77;;;;;;;18.82;60.38;98887.09;7033409;28;20241;-80
2022/08/21 05:34:56;;;;;;;3.73;3.40;;;;;;;18.97;60.74;98890.00;7058363;28;20221;-81
2022/08/21 05:38:18;;;;;;;4.60;4.07;;;;;;;19.31;60.27;98893.38;7024820;28;20243;-80
2022/08/21 05:41:39;;;;;;;10.73;4.63;;;;;;;19.51;59.27;98878.00;7004461;28;20206;-80
2022/08/21 05:45:01;;;;;;;4.67;3.60;;;;;;;19.82;58.18;98868.94;7005034;28;20233;-81
2022/08/21 05:48:24;;;;;;;3.53;3.23;;;;;;;20.48;57.65;98867.47;7004398;28;20259;-80
2022/08/21 05:51:47;;;;;;;3.87;3.27;;;;;;;20.52;56.44;98893.25;7004624;28;20271;-80
2022/08/21 05:55:09;;;;;;;3.83;3.40;;;;;;;21.08;55.68;98897.84;7005102;28;20836;-80
2022/08/21 05:58:32;;;;;;;3.37;3.07;;;;;;;21.11;56.07;98902.81;7003898;28;20232;-81
2022/08/21 06:01:54;;;;;;;4.80;3.30;;;;;;;21.33;55.11;98899.56;7031894;28;20205;-80
2022/08/21 06:05:15;;;;;;;4.20;2.87;;;;;;;21.73;54.16;98896.88;7033942;28;20381;-80
2022/08/21 06:08:38;;;;;;;3.37;2.77;;;;;;;22.12;52.87;98891.66;7033110;28;20197;-81
2022/08/21 06:12:04;;;;;;;4.13;3.10;;;;;;;22.10;52.92;98883.69;7033786;28;20205;-81
2022/08/21 06:15:26;;;;;;;4.27;3.00;;;;;;;22.67;51.43;98883.28;7032977;28;20266;-80
2022/08/21 06:18:47;;;;;;;5.20;2.87;;;;;;;22.99;51.21;98890.00;7033411;28;20657;-81
2022/08/21 06:22:09;;;;;;;4.47;3.00;;;;;;;22.67;52.05;98891.53;7033221;28;20291;-80
2022/08/21 06:25:34;;;;;;;3.20;2.90;;;;;;;22.70;51.48;98877.22;7031439;28;20245;-80
2022/08/21 06:28:55;;;;;;;3.57;2.93;;;;;;;23.08;50.96;98876.50;7031840;28;20227;-80
2022/08/21 06:32:17;;;;;;;2.70;2.50;;;;;;;22.56;52.74;98865.19;7031789;28;20226;-80
2022/08/21 06:35:39;;;;;;;2.43;2.33;;;;;;;22.80;53.14;98886.25;7034784;28;20292;-80
2022/08/21 06:39:00;;;;;;;3.27;3.00;;;;;;;22.36;54.53;98866.03;7033409;28;20250;-80
2022/08/21 06:42:24;;;;;;;2.60;2.40;;;;;;;22.66;54.02;98879.69;7031937;28;20197;-83
2022/08/21 06:45:45;;;;;;;4.00;2.60;;;;;;;22.86;53.06;98859.56;7031926;28;20247;-81
2022/08/21 06:49:07;;;;;;;4.33;2.63;;;;;;;22.94;52.79;98884.53;7030144;28;20204;-81
2022/08/21 06:52:29;;;;;;;5.20;2.67;;;;;;;23.46;52.29;98886.72;7030596;28;20205;-80
2022/08/21 06:55:50;;;;;;;2.30;2.20;;;;;;;24.39;50.22;98880.69;7029497;28;20246;-81
2022/08/21 06:59:13;;;;;;;5.57;2.57;;;;;;;24.56;48.71;98867.25;7030753;28;20201;-81
2022/08/21 07:02:35;;;;;;;2.83;2.47;;;;;;;25.33;47.45;98877.88;7023491;28;20199;-81
2022/08/21 07:05:58;;;;;;;2.50;2.40;;;;;;;25.65;46.02;98875.16;7002349;28;20215;-81
2022/08/21 07:09:19;;;;;;;3.73;2.57;;;;;;;25.22;47.71;98870.81;7002685;28;20215;-82
2022/08/21 07:12:41;;;;;;;4.20;2.03;;;;;;;25.22;47.67;98879.09;7002959;28;20207;-81
2022/08/21 07:16:04;;;;;;;2.83;2.60;;;;;;;25.23;47.97;98875.22;7004788;28;20763;-81
2022/08/21 07:19:26;;;;;;;3.10;2.77;;;;;;;24.64;50.05;98849.25;7012896;28;20202;-81
2022/08/21 07:22:47;;;;;;;3.43;3.13;;;;;;;24.64;49.13;98854.78;7007253;28;20219;-81
2022/08/21 07:26:10;;;;;;;6.23;3.33;;;;;;;24.91;48.82;98858.56;7006457;28;20314;-82
2022/08/21 07:29:31;;;;;;;5.53;3.07;;;;;;;25.62;46.24;98859.19;7007174;28;20192;-81
2022/08/21 07:32:54;;;;;;;4.17;3.30;;;;;;;26.52;45.46;98862.28;7011262;28;20206;-81
2022/08/21 07:36:17;;;;;;;3.83;3.23;;;;;;;26.70;42.99;98847.56;7051898;28;20202;-82
2022/08/21 07:39:38;;;;;;;4.37;3.27;;;;;;;26.59;44.12;98818.47;7045131;28;20203;-82
2022/08/21 07:43:00;;;;;;;4.37;3.20;;;;;;;26.79;41.90;98857.59;7008531;28;20251;-82
2022/08/21 07:46:22;;;;;;;7.63;3.27;;;;;;;27.02;40.60;98852.97;7006918;28;20708;-81
2022/08/21 07:49:46;;;;;;;5.43;3.37;;;;;;;26.74;39.01;98849.41;7005752;28;20210;-81
2022/08/21 07:53:07;;;;;;;4.70;3.30;;;;;;;26.22;38.80;98858.16;7006810;28;20208;-81
2022/08/21 07:56:30;;;;;;;3.90;2.80;;;;;;;26.33;39.63;98847.72;7006779;28;20220;-81
2022/08/21 07:59:52;;;;;;;4.97;3.10;;;;;;;26.91;38.20;98857.06;7005763;28;20293;-82
2022/08/21 08:03:13;;;;;;;4.93;3.27;;;;;;;27.06;37.93;98854.78;7007680;28;20268;-81
2022/08/21 08:06:36;;;;;;;4.73;3.20;;;;;;;27.23;38.48;98849.47;7008947;28;20209;-81
2022/08/21 08:09:58;;;;;;;5.43;3.50;;;;;;;28.00;37.73;98830.66;7008643;28;20213;-81
2022/08/21 08:13:19;;;;;;;5.50;3.80;;;;;;;27.72;37.51;98838.28;7009288;28;20222;-81
2022/08/21 08:16:41;;;;;;;5.43;3.40;;;;;;;27.56;37.77;98845.34;7008277;28;20230;-81
2022/08/21 08:20:03;;;;;;;7.10;4.17;;;;;;;27.12;36.45;98845.25;7009681;28;20221;-81
2022/08/21 08:23:27;;;;;;;7.90;4.07;;;;;;;27.19;37.55;98831.03;7010354;28;20230;-82
2022/08/21 08:26:49;;;;;;;5.57;3.80;;;;;;;27.89;36.86;98826.53;7009114;28;20212;-81
2022/08/21 08:30:13;;;;;;;6.13;3.83;;;;;;;28.64;36.71;98833.63;7010868;28;20232;-82
2022/08/21 08:33:34;;;;;;;8.77;4.07;;;;;;;28.96;35.95;98819.34;7010600;28;20303;-81
2022/08/21 08:36:57;;;;;;;5.70;3.80;;;;;;;28.39;35.65;98786.38;7010861;28;20283;-82
2022/08/21 08:40:25;;;;;;;6.83;3.90;;;;;;;28.92;34.89;98800.88;7021822;28;20205;-83
2022/08/21 08:43:51;;;;;;;6.23;3.60;;;;;;;29.47;35.03;98819.41;7023140;28;20235;-82
2022/08/21 08:47:16;;;;;;;6.53;4.00;;;;;;;29.31;34.18;98818.25;7006949;28;20224;-81
2022/08/21 08:50:42;;;;;;;6.40;3.80;;;;;;;29.31;34.74;98804.34;7006482;28;20279;-81
2022/08/21 08:54:05;;;;;;;6.30;4.10;;;;;;;29.50;34.08;98804.88;7006245;28;20222;-82
2022/08/21 08:57:30;;;;;;;8.93;4.53;;;;;;;30.15;32.97;98804.63;7006074;28;20218;-82
2022/08/21 09:00:53;;;;;;;5.17;3.80;;;;;;;30.18;32.83;98792.81;7006234;28;20203;-82
2022/08/21 09:04:19;;;;;;;7.20;3.93;;;;;;;30.24;32.30;98817.34;7005582;28;20238;-81
2022/08/21 09:07:48;;;;;;;6.47;3.87;;;;;;;30.68;31.98;98802.97;7005450;28;20207;-82
2022/08/21 09:11:14;;;;;;;6.23;3.90;;;;;;;30.43;32.32;98797.50;7007028;28;20700;-82
2022/08/21 09:14:59;;;;;;;5.67;3.77;;;;;;;30.86;31.56;98759.94;7005914;28;20359;-82
2022/08/21 09:18:41;;;;;;;4.83;4.33;;;;;;;30.22;31.17;98786.28;7006027;28;20660;-82
2022/08/21 09:22:09;;;;;;;6.13;4.20;;;;;;;30.55;30.88;98761.41;7006547;28;20276;-81
2022/08/21 09:25:34;;;;;;;5.37;3.50;;;;;;;30.37;30.46;98784.91;7005028;28;20232;-82
2022/08/21 09:28:57;;;;;;;4.77;3.43;;;;;;;30.53;31.08;98778.44;7004292;28;20412;-82
2022/08/21 09:32:22;;;;;;;6.53;4.27;;;;;;;30.63;30.11;98733.53;7004912;28;20251;-82
2022/08/21 09:35:53;;;;;;;5.20;4.10;;;;;;;30.30;29.62;98768.72;7004377;28;20227;-81
2022/08/21 09:39:24;;;;;;;6.13;3.77;;;;;;;29.68;29.77;98755.66;7019467;28;20247;-82
2022/08/21 09:42:55;;;;;;;6.30;3.73;;;;;;;30.07;31.43;98777.63;7014320;28;20231;-82
2022/08/21 09:46:22;;;;;;;6.03;3.30;;;;;;;30.57;29.42;98734.88;7003833;28;20329;-81
2022/08/21 09:49:45;;;;;;;6.63;3.93;;;;;;;31.02;29.97;98760.16;7004131;28;20184;-81
2022/08/21 09:53:17;;;;;;;5.77;3.83;;;;;;;31.15;28.56;98740.38;7004386;28;20203;-81
2022/08/21 10:00:25;;;;;;;4.97;3.77;;;;;;;30.68;29.56;98763.16;7004206;28;20211;-82
2022/08/21 10:03:47;;;;;;;6.00;3.63;;;;;;;32.16;28.18;98765.63;7004306;28;20712;-82
2022/08/21 10:07:11;;;;;;;5.73;3.80;;;;;;;32.08;27.75;98751.78;7004810;28;20200;-82
2022/08/21 10:10:37;;;;;;;6.20;3.77;;;;;;;32.87;26.96;98743.69;7005388;28;20286;-82
2022/08/21 10:14:03;;;;;;;7.47;3.70;;;;;;;31.28;28.54;98699.47;7005699;28;20375;-81
2022/08/21 10:17:29;;;;;;;9.53;3.53;;;;;;;31.75;27.38;98723.94;7005515;28;20638;-82
2022/08/21 10:20:55;;;;;;;3.70;3.00;;;;;;;31.79;26.80;98724.88;7004669;28;20209;-82
2022/08/21 10:24:23;;;;;;;6.17;2.97;;;;;;;32.92;25.72;98733.09;7005112;28;20231;-81
2022/08/21 10:27:55;;;;;;;5.63;3.40;;;;;;;32.64;26.23;98737.75;7007916;28;20192;-81
2022/08/21 10:31:22;;;;;;;6.77;3.60;;;;;;;32.05;27.24;98733.75;7032129;28;20190;-81
2022/08/21 10:34:49;;;;;;;5.63;3.13;;;;;;;33.12;25.58;98737.69;7032091;28;20255;-81
2022/08/21 10:38:43;;;;;;;5.07;3.33;;;;;;;32.68;26.34;98733.13;7031214;28;20666;-84
2022/08/21 10:42:26;;;;;;;4.47;3.33;;;;;;;33.13;23.70;98728.13;7016119;28;20210;-80
2022/08/21 10:45:54;;;;;;;4.77;3.20;;;;;;;32.69;24.49;98709.59;7017768;28;20261;-80
2022/08/21 10:49:23;;;;;;;14.63;12.83;;;;;;;33.41;24.46;98719.78;7032180;28;20181;-80
2022/08/21 10:52:56;;;;;;;29.73;24.83;;;;;;;34.20;23.57;98719.59;7037262;28;20323;-81
2022/08/21 10:56:20;;;;;;;6.53;3.67;;;;;;;32.54;25.03;98709.50;7037768;28;20214;-82
2022/08/21 10:59:49;;;;;;;5.50;3.27;;;;;;;33.05;24.39;98725.47;7037511;28;20222;-81
2022/08/21 11:03:14;;;;;;;4.80;3.30;;;;;;;33.55;23.07;98715.41;7037758;28;20246;-81
2022/08/21 11:06:38;;;;;;;6.23;2.93;;;;;;;33.56;23.77;98719.03;7036862;28;20258;-80
2022/08/21 11:10:04;;;;;;;5.10;3.27;;;;;;;33.39;23.95;98695.00;7032190;28;20199;-81
2022/08/21 11:13:32;;;;;;;7.23;3.33;;;;;;;34.13;22.95;98709.03;7036530;28;20277;-80
2022/08/21 11:17:01;;;;;;;4.67;3.10;;;;;;;34.37;21.96;98692.06;7036777;28;20301;-80
2022/08/21 11:20:29;;;;;;;5.07;3.30;;;;;;;33.07;22.21;98690.44;7036089;28;20190;-81
2022/08/21 11:23:55;;;;;;;4.73;2.80;;;;;;;33.26;22.60;98671.00;7035139;28;20263;-81
2022/08/21 11:27:22;;;;;;;4.10;2.70;;;;;;;33.58;22.45;98691.50;7034375;28;20213;-82
2022/08/21 11:30:49;;;;;;;7.83;3.57;;;;;;;32.70;24.31;98674.91;7015620;28;20195;-81
2022/08/21 11:34:24;;;;;;;4.73;3.40;;;;;;;32.52;24.42;98686.69;7037784;28;20227;-81
2022/08/21 11:38:01;;;;;;;6.93;3.37;;;;;;;33.23;23.74;98679.31;7038163;28;20635;-81
2022/08/21 11:41:28;;;;;;;6.17;2.83;;;;;;;33.00;23.39;98658.66;7039175;28;20582;-81
2022/08/21 11:44:57;;;;;;;5.13;3.00;;;;;;;33.57;22.78;98676.75;7039312;28;20318;-81
2022/08/21 11:48:34;;;;;;;5.10;2.77;;;;;;;33.91;22.76;98659.28;7011031;28;20609;-81
2022/08/21 11:52:08;;;;;;;4.50;3.03;;;;;;;33.87;22.27;98660.38;7012197;28;20203;-81
2022/08/21 11:55:34;;;;;;;4.80;2.90;;;;;;;33.75;22.43;98635.25;7021908;28;20234;-81
2022/08/21 11:59:01;;;;;;;5.03;3.03;;;;;;;32.66;23.87;98660.03;7028888;28;20226;-81
2022/08/21 12:02:28;;;;;;;4.47;3.17;;;;;;;33.35;23.50;98656.91;7010275;28;20655;-81
2022/08/21 12:05:54;;;;;;;7.10;3.17;;;;;;;33.21;22.77;98659.28;7010511;28;20255;-81
2022/08/21 12:09:32;;;;;;;5.37;3.33;;;;;;;33.53;22.90;98664.63;7008953;28;20225;-81
2022/08/21 12:12:53;;;;;;;6.53;3.10;;;;;;;33.51;22.30;98652.19;7023529;28;20205;-82
2022/08/21 12:16:16;;;;;;;5.80;2.80;;;;;;;34.57;21.88;98654.53;7035388;28;20203;-82
2022/08/21 12:19:38;;;;;;;4.10;2.80;;;;;;;33.88;21.73;98656.38;7031445;28;20206;-81
2022/08/21 12:23:06;;;;;;;6.37;3.30;;;;;;;33.95;21.01;98634.22;7027737;28;20261;-82
2022/08/21 12:26:31;;;;;;;5.93;2.70;;;;;;;34.02;22.13;98634.38;7006052;28;20211;-82
2022/08/21 12:29:55;;;;;;;5.10;3.00;;;;;;;33.31;21.17;98654.03;7005354;28;20256;-82
2022/08/21 12:33:25;;;;;;;5.13;2.87;;;;;;;33.30;21.70;98634.84;7006079;28;20223;-82
2022/08/21 12:36:50;;;;;;;4.17;2.70;;;;;;;33.59;21.49;98638.03;7006131;28;20210;-81
2022/08/21 12:40:18;;;;;;;4.40;3.10;;;;;;;33.84;20.73;98607.94;7004769;28;20258;-82
2022/08/21 12:43:42;;;;;;;3.33;2.47;;;;;;;32.53;21.94;98632.47;7005804;28;20295;-82
2022/08/21 12:47:06;;;;;;;5.70;2.90;;;;;;;33.82;20.94;98613.06;7005655;28;20200;-82
2022/08/21 12:50:42;;;;;;;3.50;2.70;;;;;;;33.59;21.02;98593.28;7004493;28;20746;-81
2022/08/21 12:54:04;;;;;;;3.80;2.73;;;;;;;34.47;20.47;98613.09;7005386;28;20259;-82
2022/08/21 12:57:27;;;;;;;5.33;3.17;;;;;;;34.02;21.37;98612.00;7004825;28;20298;-82
2022/08/21 13:00:53;;;;;;;6.10;3.10;;;;;;;33.89;21.30;98618.88;7004291;28;20208;-82
2022/08/21 13:04:19;;;;;;;3.60;3.10;;;;;;;33.37;20.54;98593.09;7004540;28;20227;-81
2022/08/21 13:07:46;;;;;;;3.00;2.70;;;;;;;33.79;20.31;98597.81;7004802;28;20349;-80
2022/08/21 13:11:07;;;;;;;3.73;2.60;;;;;;;32.89;21.63;98618.47;7004857;28;20232;-81
2022/08/21 13:14:31;;;;;;;3.57;2.80;;;;;;;33.11;21.44;98606.69;7003715;28;20228;-80
2022/08/21 13:17:58;;;;;;;4.30;2.67;;;;;;;33.60;21.24;98608.88;7003248;28;20667;-81
2022/08/21 13:21:20;;;;;;;5.47;3.00;;;;;;;33.63;21.91;98613.78;6999217;28;20205;-81
2022/08/21 13:24:41;;;;;;;5.23;3.00;;;;;;;33.61;20.80;98607.72;7030721;28;20239;-81
2022/08/21 13:28:08;;;;;;;7.17;3.00;;;;;;;33.06;20.83;98587.38;7030942;28;20721;-81
2022/08/21 13:31:31;;;;;;;3.77;2.77;;;;;;;33.05;21.22;98591.38;7031866;28;20197;-81
2022/08/21 13:34:54;;;;;;;4.00;3.07;;;;;;;33.51;21.60;98608.25;7031885;28;20232;-81
2022/08/21 13:38:17;;;;;;;3.83;2.70;;;;;;;33.39;21.07;98610.31;7028612;28;20204;-81
2022/08/21 13:41:40;;;;;;;4.03;2.60;;;;;;;32.19;22.16;98591.91;7024067;28;20302;-80
2022/08/21 13:45:01;;;;;;;3.83;2.67;;;;;;;32.44;21.79;98607.47;7003079;28;20268;-81
2022/08/21 13:48:26;;;;;;;4.10;2.40;;;;;;;32.42;22.04;98575.53;7002953;28;20209;-81
2022/08/21 13:51:51;;;;;;;4.30;2.63;;;;;;;32.37;22.13;98596.09;7003081;28;20358;-81
2022/08/21 13:55:17;;;;;;;5.43;3.13;;;;;;;33.00;21.62;98591.63;7003297;28;20311;-81
2022/08/21 13:58:44;;;;;;;5.43;2.60;;;;;;;33.58;21.55;98591.66;7003870;28;20192;-81
2022/08/21 14:02:12;;;;;;;4.33;3.00;;;;;;;32.28;21.96;98578.69;7007561;28;20257;-81
2022/08/21 14:05:39;;;;;;;3.77;2.87;;;;;;;32.19;22.28;98580.75;7031257;28;20244;-81
2022/08/21 14:09:09;;;;;;;3.73;2.80;;;;;;;33.23;21.64;98590.69;7025161;28;20202;-81
2022/08/21 14:12:36;;;;;;;4.33;2.87;;;;;;;33.46;19.99;98574.97;7021965;28;20288;-81
2022/08/21 14:15:59;;;;;;;5.77;3.20;;;;;;;33.86;20.82;98586.00;7025215;28;20720;-81
2022/08/21 14:19:23;;;;;;;4.97;2.90;;;;;;;33.55;20.78;98577.59;7019775;28;20231;-81
2022/08/21 14:22:46;;;;;;;3.90;2.70;;;;;;;34.12;19.86;98581.44;7004464;28;20236;-80
2022/08/21 14:26:09;;;;;;;2.63;2.43;;;;;;;33.48;20.88;98585.81;7003662;28;20312;-81
2022/08/21 14:29:34;;;;;;;4.33;2.90;;;;;;;33.20;20.65;98580.22;7005032;28;20206;-81
2022/08/21 14:32:56;;;;;;;5.10;3.00;;;;;;;33.76;20.05;98564.13;7017887;28;20732;-80
2022/08/21 14:36:18;;;;;;;3.27;2.80;;;;;;;33.90;20.50;98573.72;7033225;28;20260;-80
2022/08/21 14:39:39;;;;;;;5.23;3.03;;;;;;;33.32;20.50;98576.59;7031846;28;20296;-81
2022/08/21 14:43:02;;;;;;;3.57;2.77;;;;;;;32.83;21.00;98581.56;7034278;28;20252;-81
2022/08/21 14:46:27;;;;;;;3.33;2.80;;;;;;;33.62;20.19;98564.59;7032718;28;20223;-80
2022/08/21 14:49:50;;;;;;;6.53;2.90;;;;;;;32.55;21.39;98563.16;7033157;28;20198;-81
2022/08/21 14:53:11;;;;;;;3.10;2.57;;;;;;;33.81;20.16;98561.09;7032585;28;20226;-79
2022/08/21 14:56:33;;;;;;;2.77;2.40;;;;;;;33.19;20.37;98570.22;7031480;28;20216;-80
2022/08/21 14:59:56;;;;;;;5.37;2.60;;;;;;;32.59;20.27;98517.41;7030808;28;20263;-79
2022/08/21 15:03:18;;;;;;;2.93;2.37;;;;;;;32.94;19.77;98554.75;7032578;28;20226;-80
2022/08/21 15:06:40;;;;;;;4.63;3.00;;;;;;;32.26;19.65;98553.09;7038056;28;20250;-80
2022/08/21 15:10:03;;;;;;;3.67;3.00;;;;;;;31.98;21.34;98557.78;7047072;28;20217;-80
2022/08/21 15:13:25;;;;;;;3.50;2.70;;;;;;;32.53;21.25;98562.69;7031291;28;20683;-80
2022/08/21 15:16:48;;;;;;;3.90;2.37;;;;;;;32.54;20.66;98555.94;7030777;28;20198;-81
2022/08/21 15:20:11;;;;;;;3.60;2.60;;;;;;;33.20;20.41;98529.91;7029354;28;20299;-81
2022/08/21 15:23:32;;;;;;;3.07;2.70;;;;;;;33.12;20.83;98550.47;7030760;28;20719;-80
2022/08/21 15:26:55;;;;;;;3.53;2.50;;;;;;;33.41;19.95;98541.69;7030826;28;20222;-81
2022/08/21 15:30:16;;;;;;;5.37;3.00;;;;;;;33.11;20.49;98537.66;7029680;28;20291;-80
2022/08/21 15:33:39;;;;;;;3.90;2.90;;;;;;;33.30;19.07;98535.00;7030411;28;20234;-80
2022/08/21 15:37:01;;;;;;;4.60;2.70;;;;;;;32.66;20.88;98514.03;7030990;28;20243;-82
2022/08/21 15:40:22;;;;;;;3.47;2.70;;;;;;;33.09;20.00;98528.00;7034768;28;20206;-81
2022/08/21 15:43:47;;;;;;;4.53;2.83;;;;;;;32.92;20.10;98533.94;7035533;28;20704;-80
2022/08/21 15:47:14;;;;;;;5.03;2.80;;;;;;;32.94;20.06;98520.41;7013022;28;20234;-80
2022/08/21 15:50:37;;;;;;;3.67;2.60;;;;;;;32.65;19.90;98521.56;7006814;28;20184;-80
2022/08/21 15:53:58;;;;;;;4.87;3.17;;;;;;;32.76;21.49;98519.94;7008092;28;20222;-81
2022/08/21 15:57:22;;;;;;;5.63;2.77;;;;;;;32.80;20.40;98490.13;7006821;28;20218;-81
2022/08/21 16:00:44;;;;;;;5.57;3.17;;;;;;;32.86;20.45;98505.47;7006842;28;20203;-81
2022/08/21 16:04:06;;;;;;;5.17;3.20;;;;;;;32.81;21.03;98507.69;7007959;28;20280;-80